Time;durP1;ratioP1;P1;durP2;ratioP2;P2;SDS_P1;SDS_P2;PMS_P1;PMS_P2;Temp;Humidity;BMP_temperature;BMP_pressure;BME280_temperature;BME280_humidity;BME280_pressure;Samples;Min_cycle;Max_cycle;Signal;HPM_P1;HPM_P2
2021/12/19 00:00:32;;;;;;;0.40;0.40;;;7.90;99.90;;;;;;4418348;32;20065;-68
2021/12/19 00:03:06;;;;;;;0.32;0.32;;;7.90;99.90;;;;;;4414433;32;20086;-67
2021/12/19 00:08:48;;;;;;;0.40;0.40;;;7.90;99.90;;;;;;4415752;32;20451;-66
2021/12/19 00:08:58;;;;;;;0.40;0.40;;;7.90;99.90;;;;;;4417317;32;20066;-67
2021/12/19 00:11:04;;;;;;;2.95;0.98;;;7.90;99.90;;;;;;4407453;32;20065;-67
2021/12/19 00:13:30;;;;;;;0.40;0.40;;;7.90;99.90;;;;;;4428623;32;20074;-68
2021/12/19 00:15:56;;;;;;;0.30;0.30;;;7.90;99.90;;;;;;4417038;32;20073;-68
2021/12/19 00:18:22;;;;;;;1.98;0.98;;;7.90;99.90;;;;;;4415850;32;20073;-67
2021/12/19 00:20:48;;;;;;;2.45;0.57;;;7.90;99.90;;;;;;4424436;32;20135;-67
2021/12/19 00:23:15;;;;;;;0.40;0.40;;;7.90;99.90;;;;;;4428025;32;20086;-67
2021/12/19 00:25:41;;;;;;;0.40;0.40;;;7.90;99.90;;;;;;4416355;32;20118;-68
2021/12/19 00:28:07;;;;;;;0.30;0.30;;;7.90;99.90;;;;;;4416332;32;20082;-67
2021/12/19 00:30:34;;;;;;;0.40;0.40;;;7.90;99.90;;;;;;4413305;32;20065;-67
2021/12/19 00:33:00;;;;;;;0.40;0.40;;;7.90;99.90;;;;;;4426124;32;20077;-68
2021/12/19 00:35:26;;;;;;;0.30;0.30;;;7.90;99.90;;;;;;4428342;32;20077;-66
2021/12/19 00:37:53;;;;;;;1.40;1.05;;;7.90;99.90;;;;;;4429406;32;20074;-66
2021/12/19 00:40:20;;;;;;;0.37;0.37;;;7.90;99.90;;;;;;4418200;32;20065;-66
2021/12/19 00:42:51;;;;;;;0.62;0.62;;;7.90;99.90;;;;;;4418568;32;20070;-67
2021/12/19 00:45:35;;;;;;;0.40;0.40;;;7.90;99.90;;;;;;4422672;32;20127;-67
2021/12/19 00:48:03;;;;;;;0.65;0.65;;;7.90;99.90;;;;;;4417658;32;20196;-66
2021/12/19 00:50:30;;;;;;;0.40;0.40;;;7.90;99.90;;;;;;4428251;32;20072;-67
2021/12/19 00:52:56;;;;;;;0.50;0.50;;;7.90;99.90;;;;;;4428832;32;20136;-67
2021/12/19 00:55:24;;;;;;;0.40;0.40;;;7.90;99.90;;;;;;4425676;32;20065;-67
2021/12/19 00:57:50;;;;;;;0.43;0.43;;;7.90;99.90;;;;;;4425721;32;20478;-66
2021/12/19 01:00:25;;;;;;;0.55;0.50;;;7.90;99.90;;;;;;4427244;32;20061;-67
2021/12/19 01:02:53;;;;;;;0.60;0.60;;;7.80;99.90;;;;;;4417832;32;20070;-68
2021/12/19 01:05:19;;;;;;;3.65;1.02;;;7.80;99.90;;;;;;4414222;32;20054;-67
2021/12/19 01:07:45;;;;;;;5.03;1.27;;;7.80;99.90;;;;;;4421907;32;20469;-66
2021/12/19 01:10:10;;;;;;;0.43;0.43;;;7.80;99.90;;;;;;4423714;32;20072;-67
2021/12/19 01:12:38;;;;;;;0.70;0.70;;;7.80;99.90;;;;;;4427307;32;20439;-67
2021/12/19 01:15:07;;;;;;;0.77;0.77;;;7.80;99.90;;;;;;4414302;32;20094;-68
2021/12/19 01:17:33;;;;;;;0.50;0.50;;;7.80;99.90;;;;;;4420608;32;20079;-72
2021/12/19 01:19:59;;;;;;;0.30;0.30;;;7.80;99.90;;;;;;4427854;32;20057;-65
2021/12/19 01:22:24;;;;;;;0.40;0.40;;;7.80;99.90;;;;;;4414907;32;20685;-67
2021/12/19 01:24:50;;;;;;;0.40;0.40;;;7.80;99.90;;;;;;4426548;32;20069;-66
2021/12/19 01:27:15;;;;;;;0.40;0.40;;;7.80;99.90;;;;;;4423329;32;20530;-67
2021/12/19 01:29:41;;;;;;;0.43;0.43;;;7.80;99.90;;;;;;4417509;32;20136;-66
2021/12/19 01:32:06;;;;;;;5.47;0.88;;;7.80;99.90;;;;;;4413820;32;20073;-67
2021/12/19 01:34:32;;;;;;;0.45;0.45;;;7.70;99.90;;;;;;4426613;32;20411;-66
2021/12/19 01:36:58;;;;;;;0.60;0.60;;;7.80;99.90;;;;;;4420448;32;20081;-67
2021/12/19 01:39:23;;;;;;;0.40;0.40;;;7.70;99.90;;;;;;4421249;32;20500;-67
2021/12/19 01:41:52;;;;;;;0.40;0.40;;;7.70;99.90;;;;;;4429084;32;20073;-66
2021/12/19 01:44:18;;;;;;;0.30;0.30;;;7.70;99.90;;;;;;4426109;32;20124;-67
2021/12/19 01:46:46;;;;;;;0.47;0.47;;;7.70;99.90;;;;;;4413410;32;20137;-66
2021/12/19 01:49:13;;;;;;;0.40;0.40;;;7.70;99.90;;;;;;4419387;32;20477;-67
2021/12/19 01:51:39;;;;;;;30.25;1.60;;;7.70;99.90;;;;;;4417690;32;20078;-66
2021/12/19 01:54:05;;;;;;;0.37;0.37;;;7.70;99.90;;;;;;4418994;32;20066;-67
2021/12/19 01:56:32;;;;;;;0.30;0.30;;;7.80;99.90;;;;;;4414421;32;20176;-67
2021/12/19 01:58:58;;;;;;;0.40;0.40;;;7.80;99.90;;;;;;4425103;32;20065;-66
2021/12/19 02:01:24;;;;;;;0.60;0.60;;;7.80;99.90;;;;;;4414846;32;20078;-67
2021/12/19 02:03:50;;;;;;;0.32;0.32;;;7.80;99.90;;;;;;4418169;32;20451;-66
2021/12/19 02:06:16;;;;;;;1.00;0.70;;;7.80;99.90;;;;;;4432004;32;20081;-67
2021/12/19 02:08:41;;;;;;;0.30;0.30;;;7.80;99.90;;;;;;4419131;32;20069;-67
2021/12/19 02:11:07;;;;;;;0.77;0.77;;;7.70;99.90;;;;;;4429695;32;20065;-67
2021/12/19 02:13:33;;;;;;;0.32;0.32;;;7.70;99.90;;;;;;4430461;32;20065;-66
2021/12/19 02:15:59;;;;;;;0.30;0.30;;;7.70;99.90;;;;;;4424272;32;20073;-67
2021/12/19 02:18:24;;;;;;;0.45;0.45;;;7.70;99.90;;;;;;4429361;32;20076;-66
2021/12/19 02:20:54;;;;;;;0.98;0.75;;;7.70;99.90;;;;;;4425131;32;20081;-66
2021/12/19 02:23:21;;;;;;;0.28;0.28;;;7.70;99.90;;;;;;4427681;32;20093;-67
2021/12/19 02:25:48;;;;;;;0.30;0.30;;;7.70;99.90;;;;;;4417301;32;20129;-67
2021/12/19 02:28:14;;;;;;;0.52;0.50;;;7.70;99.90;;;;;;4426072;32;20608;-67
2021/12/19 02:30:40;;;;;;;0.40;0.40;;;7.70;99.90;;;;;;4430174;32;20533;-67
2021/12/19 02:33:11;;;;;;;0.30;0.30;;;7.70;99.90;;;;;;4429974;32;20605;-66
2021/12/19 02:35:37;;;;;;;;;;;7.80;99.90;;;;;;4416710;32;20066;-66
2021/12/19 02:48:09;;;;;;;0.40;0.40;;;7.70;99.90;;;;;;4422273;32;20117;-66
2021/12/19 02:48:12;;;;;;;1.95;1.00;;;7.70;99.90;;;;;;4418880;32;20130;-68
2021/12/19 02:48:48;;;;;;;0.60;0.60;;;7.70;99.90;;;;;;4413672;32;20081;-66
2021/12/19 02:51:14;;;;;;;0.40;0.40;;;7.80;99.90;;;;;;4424422;32;20065;-67
2021/12/19 02:53:42;;;;;;;0.40;0.40;;;7.70;99.90;;;;;;4420661;32;20077;-67
2021/12/19 02:56:10;;;;;;;0.40;0.40;;;7.70;99.90;;;;;;4416982;32;20636;-67
2021/12/19 02:58:37;;;;;;;0.50;0.50;;;7.70;99.90;;;;;;4421477;32;20178;-66
2021/12/19 03:01:14;;;;;;;0.40;0.40;;;7.70;99.90;;;;;;4419400;32;20081;-66
2021/12/19 03:03:40;;;;;;;0.40;0.40;;;7.70;99.90;;;;;;4426384;32;20074;-66
2021/12/19 03:06:05;;;;;;;0.40;0.40;;;7.70;99.90;;;;;;4430349;32;20073;-67
2021/12/19 03:08:32;;;;;;;0.50;0.50;;;7.70;99.90;;;;;;4422403;32;20062;-66
2021/12/19 03:18:01;;;;;;;0.40;0.40;;;7.70;99.90;;;;;;4398822;32;20096;-67
2021/12/19 03:19:14;;;;;;;5.05;0.55;;;7.70;99.90;;;;;;4408963;32;20092;-66
2021/12/19 03:21:41;;;;;;;0.50;0.50;;;7.70;99.90;;;;;;4415671;32;20090;-66
2021/12/19 03:24:07;;;;;;;0.30;0.30;;;7.70;99.90;;;;;;4414912;32;20065;-67
2021/12/19 03:26:33;;;;;;;9.75;0.88;;;7.70;99.90;;;;;;4414902;32;20062;-67
2021/12/19 03:28:58;;;;;;;0.30;0.30;;;7.70;99.90;;;;;;4417111;32;20418;-67
2021/12/19 03:31:25;;;;;;;0.30;0.30;;;7.80;99.90;;;;;;4422009;32;20086;-67
2021/12/19 03:33:50;;;;;;;0.30;0.30;;;7.80;99.90;;;;;;4430290;32;20078;-67
2021/12/19 03:36:16;;;;;;;0.30;0.30;;;7.70;99.90;;;;;;4429461;32;20513;-67
2021/12/19 03:38:44;;;;;;;0.32;0.32;;;7.80;99.90;;;;;;4427348;32;20499;-66
2021/12/19 03:41:18;;;;;;;0.40;0.40;;;7.70;99.90;;;;;;4429816;32;20082;-66
2021/12/19 03:43:44;;;;;;;0.75;0.75;;;7.70;99.90;;;;;;4426225;32;20533;-67
2021/12/19 03:46:10;;;;;;;0.50;0.50;;;7.70;99.90;;;;;;4418688;32;20066;-66
2021/12/19 03:48:36;;;;;;;0.30;0.30;;;7.70;99.90;;;;;;4427686;32;20061;-67
2021/12/19 03:51:01;;;;;;;0.30;0.30;;;7.70;99.90;;;;;;4429270;32;20070;-66
2021/12/19 03:53:27;;;;;;;0.28;0.28;;;7.80;99.90;;;;;;4418238;32;20077;-67
2021/12/19 03:55:52;;;;;;;0.32;0.32;;;7.80;99.90;;;;;;4414892;32;20065;-66
2021/12/19 03:58:19;;;;;;;0.45;0.45;;;7.70;99.90;;;;;;4424640;32;20062;-66
2021/12/19 04:00:46;;;;;;;0.40;0.40;;;7.70;99.90;;;;;;4416774;32;20069;-67
2021/12/19 04:03:18;;;;;;;0.30;0.30;;;7.70;99.90;;;;;;4428522;32;20054;-65
2021/12/19 04:05:45;;;;;;;0.57;0.50;;;7.70;99.90;;;;;;4414531;32;20074;-66
2021/12/19 04:08:11;;;;;;;0.68;0.68;;;7.70;99.90;;;;;;4415329;32;20065;-66
2021/12/19 04:10:36;;;;;;;0.32;0.32;;;7.70;99.90;;;;;;4420722;32;20097;-66
2021/12/19 04:13:02;;;;;;;0.50;0.50;;;7.70;99.90;;;;;;4425614;32;20086;-66
2021/12/19 04:15:28;;;;;;;0.40;0.40;;;7.80;99.90;;;;;;4418843;32;20073;-66
2021/12/19 04:17:54;;;;;;;0.37;0.37;;;7.80;99.90;;;;;;4417901;32;20062;-66
2021/12/19 04:20:19;;;;;;;0.35;0.35;;;7.90;99.90;;;;;;4422982;32;20584;-67
2021/12/19 04:22:48;;;;;;;0.35;0.35;;;7.80;99.90;;;;;;4413980;32;20074;-66
2021/12/19 04:25:14;;;;;;;0.30;0.30;;;7.80;99.90;;;;;;4428513;32;20069;-67
2021/12/19 04:27:40;;;;;;;0.30;0.30;;;7.90;99.90;;;;;;4416427;32;20075;-66
2021/12/19 04:30:07;;;;;;;0.98;0.60;;;7.90;99.90;;;;;;4417777;32;20069;-66
2021/12/19 04:32:38;;;;;;;0.30;0.30;;;7.80;99.90;;;;;;4411191;32;88233;-65
2021/12/19 04:35:05;;;;;;;0.90;0.68;;;7.80;99.90;;;;;;4427645;32;20603;-66
2021/12/19 04:38:03;;;;;;;0.40;0.40;;;7.80;99.90;;;;;;4427973;32;20081;-67
2021/12/19 04:40:21;;;;;;;0.30;0.30;;;7.80;99.90;;;;;;4404398;32;20065;-66
2021/12/19 04:44:38;;;;;;;0.30;0.30;;;7.80;99.90;;;;;;4429393;32;20050;-67
2021/12/19 04:51:20;;;;;;;0.35;0.35;;;7.80;99.90;;;;;;4402417;32;20086;-66
2021/12/19 04:53:58;;;;;;;1.40;1.10;;;7.80;99.90;;;;;;4418741;32;20141;-67
2021/12/19 04:56:35;;;;;;;5.18;1.02;;;7.70;99.90;;;;;;4421203;32;20131;-66
2021/12/19 05:02:56;;;;;;;0.77;0.52;;;7.70;99.90;;;;;;4417362;32;20146;-67
2021/12/19 05:04:42;;;;;;;1.65;0.50;;;7.70;99.90;;;;;;4401572;32;20129;-66
2021/12/19 05:14:12;;;;;;;0.40;0.40;;;7.70;99.90;;;;;;4404000;32;20608;-67
2021/12/19 05:15:27;;;;;;;0.30;0.30;;;7.80;99.90;;;;;;4415034;32;20544;-67
2021/12/19 05:17:56;;;;;;;0.37;0.37;;;7.80;99.90;;;;;;4425347;32;20416;-67
2021/12/19 05:20:26;;;;;;;1.75;0.60;;;7.80;99.90;;;;;;4421165;32;20121;-66
2021/12/19 05:22:56;;;;;;;0.30;0.30;;;7.70;99.90;;;;;;4421495;32;20116;-66
2021/12/19 05:25:22;;;;;;;6.13;1.87;;;7.70;99.90;;;;;;4418377;32;20080;-66
2021/12/19 05:27:50;;;;;;;0.30;0.30;;;7.70;99.90;;;;;;4413778;32;20074;-66
2021/12/19 05:30:17;;;;;;;0.60;0.60;;;7.70;99.90;;;;;;4422471;32;20597;-66
2021/12/19 05:32:44;;;;;;;0.75;0.73;;;7.70;99.90;;;;;;4424820;32;20077;-66
2021/12/19 05:35:13;;;;;;;0.55;0.55;;;7.70;99.90;;;;;;4415607;32;20420;-66
2021/12/19 05:45:55;;;;;;;0.30;0.30;;;7.70;99.90;;;;;;4411326;32;20070;-67
2021/12/19 05:48:21;;;;;;;0.35;0.35;;;7.60;99.90;;;;;;4417986;32;20136;-66
2021/12/19 05:50:46;;;;;;;0.55;0.55;;;7.60;99.90;;;;;;4417184;32;20122;-66
2021/12/19 05:53:15;;;;;;;0.40;0.40;;;7.60;99.90;;;;;;4416869;32;20070;-66
2021/12/19 05:55:41;;;;;;;0.30;0.30;;;7.60;99.90;;;;;;4416090;32;20109;-66
2021/12/19 05:58:06;;;;;;;0.30;0.30;;;7.60;99.90;;;;;;4428132;32;20087;-67
2021/12/19 06:00:32;;;;;;;6.93;0.68;;;7.60;99.90;;;;;;4417995;32;20557;-66
2021/12/19 06:02:59;;;;;;;0.95;0.60;;;7.70;99.90;;;;;;4430386;32;20070;-67
2021/12/19 06:05:25;;;;;;;0.37;0.37;;;7.70;99.90;;;;;;4432936;32;20120;-67
2021/12/19 06:07:51;;;;;;;5.00;1.23;;;7.60;99.90;;;;;;4425310;32;20600;-67
2021/12/19 06:10:16;;;;;;;0.35;0.35;;;7.60;99.90;;;;;;4415698;32;20081;-67
2021/12/19 06:12:43;;;;;;;0.50;0.50;;;7.60;99.90;;;;;;4419043;32;20057;-66
2021/12/19 06:15:10;;;;;;;1.12;0.93;;;7.60;99.90;;;;;;4417222;32;20579;-65
2021/12/19 06:17:38;;;;;;;0.30;0.30;;;7.60;99.90;;;;;;4419544;32;20411;-67
2021/12/19 06:20:04;;;;;;;0.30;0.30;;;7.50;99.90;;;;;;4416975;32;20113;-66
2021/12/19 06:22:29;;;;;;;0.40;0.40;;;7.50;99.90;;;;;;4418437;32;20231;-67
2021/12/19 06:24:55;;;;;;;0.40;0.40;;;7.50;99.90;;;;;;4431224;32;20062;-66
2021/12/19 06:27:20;;;;;;;5.10;0.77;;;7.50;99.90;;;;;;4429500;32;20420;-67
2021/12/19 06:29:46;;;;;;;0.30;0.30;;;7.50;99.90;;;;;;4428938;32;20081;-67
2021/12/19 06:32:12;;;;;;;0.60;0.47;;;7.50;99.90;;;;;;4428858;32;20097;-66
2021/12/19 06:34:37;;;;;;;0.73;0.37;;;7.50;99.90;;;;;;4430444;32;20157;-66
2021/12/19 06:37:08;;;;;;;0.50;0.50;;;7.50;99.90;;;;;;4430959;32;20069;-66
2021/12/19 06:39:34;;;;;;;26.35;1.30;;;7.50;99.90;;;;;;4426335;32;20058;-66
2021/12/19 06:42:00;;;;;;;0.30;0.30;;;7.50;99.90;;;;;;4429873;32;20112;-66
2021/12/19 06:44:26;;;;;;;11.18;0.62;;;7.50;99.90;;;;;;4422898;32;20086;-66
2021/12/19 06:46:51;;;;;;;0.30;0.30;;;7.50;99.90;;;;;;4420677;32;20081;-66
2021/12/19 06:49:17;;;;;;;0.30;0.30;;;7.50;99.90;;;;;;4424649;32;20126;-67
2021/12/19 06:51:43;;;;;;;0.55;0.55;;;7.50;99.90;;;;;;4428150;32;20081;-66
2021/12/19 06:54:08;;;;;;;0.40;0.40;;;7.50;99.90;;;;;;4416053;32;20057;-66
2021/12/19 06:56:34;;;;;;;0.40;0.40;;;7.50;99.90;;;;;;4417017;32;20065;-65
2021/12/19 06:59:00;;;;;;;1.48;0.70;;;7.50;99.90;;;;;;4421708;32;20069;-66
2021/12/19 07:01:25;;;;;;;1.65;0.60;;;7.50;99.90;;;;;;4423858;32;20074;-67
2021/12/19 07:03:52;;;;;;;1.90;0.55;;;7.50;99.90;;;;;;4427174;32;20406;-66
2021/12/19 07:06:18;;;;;;;0.40;0.40;;;7.40;99.90;;;;;;4429832;32;20191;-66
2021/12/19 07:08:43;;;;;;;0.40;0.40;;;7.40;99.90;;;;;;4429406;32;20105;-67
2021/12/19 07:11:09;;;;;;;0.30;0.30;;;7.40;99.90;;;;;;4426073;32;20073;-67
2021/12/19 07:13:34;;;;;;;0.88;0.73;;;7.50;99.90;;;;;;4421806;32;20112;-67
2021/12/19 07:16:00;;;;;;;0.60;0.60;;;7.40;99.90;;;;;;4416226;32;20066;-66
2021/12/19 07:18:27;;;;;;;1.75;1.00;;;7.40;99.90;;;;;;4418816;32;20144;-66
2021/12/19 07:20:52;;;;;;;2.75;0.90;;;7.40;99.90;;;;;;4422137;32;20066;-65
2021/12/19 07:23:20;;;;;;;0.40;0.40;;;7.40;99.90;;;;;;4414665;32;20128;-67
2021/12/19 07:25:46;;;;;;;1.10;0.85;;;7.40;99.90;;;;;;4414902;32;20074;-67
2021/12/19 07:28:12;;;;;;;0.60;0.60;;;7.40;99.90;;;;;;4418134;32;20466;-66
2021/12/19 07:30:38;;;;;;;0.40;0.40;;;7.30;99.90;;;;;;4421527;32;20112;-66
2021/12/19 07:33:05;;;;;;;1.08;1.00;;;7.30;99.90;;;;;;4429364;32;20057;-66
2021/12/19 07:35:35;;;;;;;0.50;0.50;;;7.40;99.90;;;;;;4430607;32;20128;-67
2021/12/19 07:38:02;;;;;;;0.40;0.40;;;7.40;99.90;;;;;;4429942;32;20073;-66
2021/12/19 07:40:35;;;;;;;0.30;0.30;;;7.40;99.90;;;;;;4414573;32;20110;-67
2021/12/19 07:43:03;;;;;;;0.30;0.30;;;7.40;99.90;;;;;;4426541;32;20117;-66
2021/12/19 07:45:29;;;;;;;0.28;0.28;;;7.40;99.90;;;;;;4414881;32;20077;-67
2021/12/19 07:47:55;;;;;;;0.30;0.30;;;7.40;99.90;;;;;;4425328;32;20428;-67
2021/12/19 07:50:21;;;;;;;0.25;0.25;;;7.40;99.90;;;;;;4415534;32;20070;-66
2021/12/19 07:52:47;;;;;;;0.30;0.30;;;7.40;99.90;;;;;;4424054;32;20069;-67
2021/12/19 07:55:12;;;;;;;0.30;0.30;;;7.40;99.90;;;;;;4430253;32;20126;-66
2021/12/19 07:57:38;;;;;;;0.50;0.50;;;7.40;99.90;;;;;;4427505;32;20057;-67
2021/12/19 08:00:05;;;;;;;0.47;0.47;;;7.40;99.90;;;;;;4424949;32;20131;-66
2021/12/19 08:02:30;;;;;;;0.90;0.62;;;7.40;99.90;;;;;;4415528;32;20563;-67
2021/12/19 08:04:56;;;;;;;0.28;0.28;;;7.30;99.90;;;;;;4429233;32;20061;-66
2021/12/19 08:07:23;;;;;;;0.40;0.40;;;7.30;99.90;;;;;;4417566;32;20514;-66
2021/12/19 08:10:01;;;;;;;0.40;0.40;;;7.30;99.90;;;;;;4415376;32;20117;-66
2021/12/19 08:12:27;;;;;;;0.88;0.85;;;7.30;99.90;;;;;;4424304;32;20070;-65
2021/12/19 08:14:53;;;;;;;0.45;0.45;;;7.30;99.90;;;;;;4415139;32;20157;-66
2021/12/19 08:17:18;;;;;;;0.30;0.30;;;7.30;99.90;;;;;;4416158;32;20062;-67
2021/12/19 08:19:44;;;;;;;0.37;0.37;;;7.40;99.90;;;;;;4424056;32;20089;-67
2021/12/19 08:22:13;;;;;;;0.30;0.30;;;7.30;99.90;;;;;;4417595;32;20178;-67
2021/12/19 08:24:38;;;;;;;0.77;0.75;;;7.30;99.90;;;;;;4429027;32;20720;-64
2021/12/19 08:27:04;;;;;;;0.47;0.47;;;7.30;99.90;;;;;;4420510;32;20086;-65
2021/12/19 08:29:29;;;;;;;0.40;0.40;;;7.30;99.90;;;;;;4423361;32;20162;-65
2021/12/19 08:31:55;;;;;;;0.30;0.30;;;7.30;99.90;;;;;;4417791;32;20075;-65
2021/12/19 08:34:21;;;;;;;0.47;0.47;;;7.30;99.90;;;;;;4419612;32;20490;-65
2021/12/19 08:36:46;;;;;;;0.30;0.30;;;7.30;99.90;;;;;;4413078;32;20066;-65
2021/12/19 08:39:12;;;;;;;0.37;0.37;;;7.30;99.90;;;;;;4414832;32;20062;-64
2021/12/19 08:41:39;;;;;;;0.50;0.50;;;7.20;99.90;;;;;;4423628;32;20062;-65
2021/12/19 08:44:04;;;;;;;0.40;0.40;;;7.30;99.90;;;;;;4415169;32;20077;-64
2021/12/19 08:46:32;;;;;;;0.35;0.35;;;7.20;99.90;;;;;;4413668;32;20077;-64
2021/12/19 08:48:58;;;;;;;0.30;0.30;;;7.10;99.90;;;;;;4423921;32;20064;-66
2021/12/19 08:51:26;;;;;;;0.30;0.30;;;7.10;99.90;;;;;;4414448;32;20062;-66
2021/12/19 08:53:52;;;;;;;0.30;0.30;;;7.10;99.90;;;;;;4416645;32;20073;-66
2021/12/19 08:56:17;;;;;;;0.30;0.30;;;7.10;99.90;;;;;;4421749;32;20557;-66
2021/12/19 08:58:43;;;;;;;0.47;0.47;;;7.20;99.90;;;;;;4414787;32;20125;-65
2021/12/19 09:01:08;;;;;;;0.37;0.37;;;7.20;99.90;;;;;;4423173;32;20112;-65
2021/12/19 09:03:34;;;;;;;0.25;0.25;;;7.20;99.90;;;;;;4417657;32;20078;-66
2021/12/19 09:06:00;;;;;;;0.30;0.30;;;7.20;99.90;;;;;;4427608;32;20404;-67
2021/12/19 09:08:25;;;;;;;0.30;0.30;;;7.20;99.90;;;;;;4413598;32;20439;-65
2021/12/19 09:10:51;;;;;;;0.30;0.30;;;7.10;99.90;;;;;;4419526;32;20586;-65
2021/12/19 09:13:17;;;;;;;0.80;0.80;;;7.10;99.90;;;;;;4429384;32;20131;-65
2021/12/19 09:15:43;;;;;;;0.30;0.30;;;7.10;99.90;;;;;;4428576;32;20084;-66
2021/12/19 09:18:09;;;;;;;0.32;0.32;;;7.10;99.90;;;;;;4421849;32;20102;-66
2021/12/19 09:20:34;;;;;;;0.40;0.40;;;7.10;99.90;;;;;;4416439;32;20099;-66
2021/12/19 09:23:00;;;;;;;0.52;0.52;;;7.20;99.90;;;;;;4428436;32;20065;-66
2021/12/19 09:25:26;;;;;;;0.30;0.30;;;7.10;99.90;;;;;;4427973;32;20081;-65
2021/12/19 09:27:51;;;;;;;0.40;0.40;;;7.10;99.90;;;;;;4427479;32;20081;-65
2021/12/19 09:30:17;;;;;;;0.28;0.28;;;7.10;99.90;;;;;;4419120;32;20073;-66
2021/12/19 09:32:43;;;;;;;0.40;0.40;;;7.10;99.90;;;;;;4416266;32;20682;-65
2021/12/19 09:35:08;;;;;;;0.30;0.30;;;7.10;99.90;;;;;;4422174;32;20066;-65
2021/12/19 09:37:35;;;;;;;0.30;0.30;;;7.00;99.90;;;;;;4428288;32;20125;-65
2021/12/19 09:40:06;;;;;;;0.30;0.30;;;7.00;99.90;;;;;;4416549;32;20074;-65
2021/12/19 09:42:35;;;;;;;0.32;0.32;;;7.00;99.90;;;;;;4419176;32;20082;-65
2021/12/19 09:45:02;;;;;;;0.30;0.30;;;7.00;99.90;;;;;;4415627;32;20121;-66
2021/12/19 09:47:28;;;;;;;0.30;0.30;;;7.10;99.90;;;;;;4420268;32;20073;-65
2021/12/19 09:49:54;;;;;;;0.40;0.40;;;7.10;99.90;;;;;;4418907;32;20082;-64
2021/12/19 09:52:20;;;;;;;0.40;0.40;;;7.10;99.90;;;;;;4412878;32;20082;-65
2021/12/19 09:54:46;;;;;;;0.40;0.40;;;7.10;99.90;;;;;;4412985;32;20535;-66
2021/12/19 09:57:11;;;;;;;0.43;0.43;;;7.00;99.90;;;;;;4413902;32;20503;-65
2021/12/19 09:59:38;;;;;;;0.30;0.30;;;7.00;99.90;;;;;;4414403;32;20112;-65
2021/12/19 10:02:04;;;;;;;0.40;0.40;;;7.00;99.90;;;;;;4424069;32;20065;-65
2021/12/19 10:04:37;;;;;;;0.30;0.30;;;7.10;99.90;;;;;;4422205;32;20117;-65
2021/12/19 10:07:13;;;;;;;0.40;0.40;;;7.10;99.90;;;;;;4427603;32;20085;-64
2021/12/19 10:09:54;;;;;;;0.30;0.30;;;7.00;99.90;;;;;;4426919;32;20139;-65
2021/12/19 10:15:07;;;;;;;0.30;0.30;;;7.00;99.90;;;;;;4427708;32;19995;-65
2021/12/19 10:17:33;;;;;;;0.30;0.30;;;7.00;99.90;;;;;;4427650;32;20427;-65
2021/12/19 10:20:02;;;;;;;0.28;0.28;;;7.00;99.90;;;;;;4415946;32;20262;-65
2021/12/19 10:22:32;;;;;;;0.30;0.30;;;7.00;99.90;;;;;;4418740;32;20104;-66
2021/12/19 10:25:22;;;;;;;0.30;0.30;;;7.00;99.90;;;;;;4416053;32;20494;-65
2021/12/19 10:27:53;;;;;;;0.40;0.40;;;7.00;99.90;;;;;;4410160;32;20492;-65
2021/12/19 10:30:27;;;;;;;;;;;7.00;99.90;;;;;;4425358;32;20521;-65
2021/12/19 10:32:59;;;;;;;0.30;0.30;;;7.10;99.90;;;;;;4415770;32;19964;-65
2021/12/19 10:35:31;;;;;;;0.30;0.30;;;7.10;99.90;;;;;;4417738;32;20420;-65
2021/12/19 10:37:59;;;;;;;0.35;0.35;;;7.10;99.90;;;;;;4427163;32;20062;-65
2021/12/19 10:40:25;;;;;;;0.40;0.40;;;7.10;99.90;;;;;;4428330;32;20082;-65
2021/12/19 10:42:59;;;;;;;0.30;0.30;;;7.00;99.90;;;;;;4430355;32;20521;-66
2021/12/19 10:45:33;;;;;;;2.50;0.98;;;7.00;99.90;;;;;;4430827;32;20061;-66
2021/12/19 10:48:16;;;;;;;0.30;0.30;;;7.10;99.90;;;;;;4425132;32;20410;-65
2021/12/19 10:50:46;;;;;;;1.75;1.05;;;7.10;99.90;;;;;;4424516;32;20093;-65
2021/12/19 10:53:12;;;;;;;1.00;0.98;;;7.10;99.90;;;;;;4418129;32;20070;-66
2021/12/19 10:55:41;;;;;;;0.43;0.43;;;7.10;99.90;;;;;;4416285;32;20117;-66
2021/12/19 10:58:28;;;;;;;0.30;0.30;;;7.10;99.90;;;;;;4424769;32;20116;-66
2021/12/19 11:00:55;;;;;;;0.60;0.60;;;7.10;99.90;;;;;;4404748;32;20121;-66
2021/12/19 11:03:40;;;;;;;0.30;0.30;;;7.10;99.90;;;;;;4420404;32;20058;-66
2021/12/19 11:06:34;;;;;;;0.30;0.30;;;7.10;99.90;;;;;;4415222;32;20073;-66
2021/12/19 11:09:04;;;;;;;1.45;0.60;;;7.10;99.90;;;;;;4422254;32;20455;-66
2021/12/19 11:11:34;;;;;;;5.18;1.48;;;7.20;99.90;;;;;;4414864;32;20077;-66
2021/12/19 11:14:00;;;;;;;0.50;0.50;;;7.10;99.90;;;;;;4414984;32;20069;-66
2021/12/19 11:16:26;;;;;;;0.30;0.30;;;7.10;99.90;;;;;;4414843;32;20466;-66
2021/12/19 11:18:51;;;;;;;0.40;0.40;;;7.10;99.90;;;;;;4422332;32;20070;-66
2021/12/19 11:21:18;;;;;;;0.40;0.40;;;7.10;99.90;;;;;;4417803;32;20073;-66
2021/12/19 11:23:44;;;;;;;0.30;0.30;;;7.20;99.90;;;;;;4430813;32;20053;-66
2021/12/19 11:26:11;;;;;;;0.30;0.30;;;7.20;99.90;;;;;;4427637;32;20078;-66
2021/12/19 11:28:37;;;;;;;0.30;0.30;;;7.20;99.90;;;;;;4424660;32;20385;-66
2021/12/19 11:31:03;;;;;;;0.30;0.30;;;7.20;99.90;;;;;;4418578;32;20150;-65
2021/12/19 11:33:45;;;;;;;0.45;0.45;;;7.30;99.90;;;;;;4421807;32;20530;-66
2021/12/19 11:36:11;;;;;;;0.47;0.40;;;7.20;99.90;;;;;;4414736;32;20082;-66
2021/12/19 11:38:37;;;;;;;0.30;0.30;;;7.10;99.90;;;;;;4424597;32;20078;-66
2021/12/19 11:41:08;;;;;;;0.30;0.30;;;7.10;99.90;;;;;;4426885;32;20519;-66
2021/12/19 11:43:37;;;;;;;0.40;0.40;;;7.10;99.90;;;;;;4420998;32;20065;-66
2021/12/19 11:46:10;;;;;;;0.40;0.40;;;7.20;99.90;;;;;;4428441;32;20120;-66
2021/12/19 11:48:35;;;;;;;0.30;0.30;;;7.20;99.90;;;;;;4419945;32;20121;-65
2021/12/19 11:51:03;;;;;;;0.75;0.60;;;7.20;99.90;;;;;;4424513;32;20128;-66
2021/12/19 11:53:35;;;;;;;0.90;0.60;;;7.20;99.90;;;;;;4425468;32;20070;-64
2021/12/19 11:56:07;;;;;;;0.30;0.30;;;7.30;99.90;;;;;;4430271;32;20108;-64
2021/12/19 11:58:52;;;;;;;0.30;0.30;;;7.20;99.90;;;;;;4423693;32;20112;-64
2021/12/19 12:01:27;;;;;;;1.75;0.68;;;7.20;99.90;;;;;;4412123;32;20086;-65
2021/12/19 12:03:56;;;;;;;0.60;0.60;;;7.20;99.90;;;;;;4416962;32;20122;-64
2021/12/19 12:06:26;;;;;;;0.50;0.50;;;7.20;99.90;;;;;;4427975;32;20073;-64
2021/12/19 12:09:22;;;;;;;0.50;0.50;;;7.20;99.90;;;;;;4420527;32;20062;-65
2021/12/19 12:12:08;;;;;;;0.30;0.30;;;7.20;99.90;;;;;;4400904;32;20062;-65
2021/12/19 12:14:38;;;;;;;4.12;0.88;;;7.20;99.90;;;;;;4414318;32;20066;-65
2021/12/19 12:17:11;;;;;;;0.40;0.40;;;7.20;99.90;;;;;;4428899;32;20077;-65
2021/12/19 12:19:48;;;;;;;0.30;0.30;;;7.10;99.90;;;;;;4420521;32;20081;-65
2021/12/19 12:22:27;;;;;;;0.30;0.30;;;7.20;99.90;;;;;;4427584;32;20060;-65
2021/12/19 12:25:18;;;;;;;0.30;0.30;;;7.20;99.90;;;;;;4428551;32;20046;-65
2021/12/19 12:27:47;;;;;;;0.40;0.40;;;7.20;99.90;;;;;;4415829;32;20566;-65
2021/12/19 12:30:17;;;;;;;0.40;0.40;;;7.20;99.90;;;;;;4413083;32;20497;-65
2021/12/19 12:32:43;;;;;;;0.40;0.40;;;7.30;99.90;;;;;;4414503;32;20718;-65
2021/12/19 12:35:11;;;;;;;0.50;0.50;;;7.30;99.90;;;;;;4422933;32;20065;-65
2021/12/19 12:37:38;;;;;;;0.37;0.37;;;7.30;99.90;;;;;;4429677;32;20057;-66
2021/12/19 12:40:18;;;;;;;0.40;0.40;;;7.30;99.90;;;;;;4427241;32;20061;-66
2021/12/19 12:43:09;;;;;;;0.30;0.30;;;7.30;99.90;;;;;;4429164;32;20585;-66
2021/12/19 12:46:11;;;;;;;0.40;0.40;;;7.30;99.90;;;;;;4412187;32;20062;-66
2021/12/19 12:48:40;;;;;;;1.50;0.80;;;7.30;99.90;;;;;;4420362;32;20069;-66
2021/12/19 12:51:10;;;;;;;0.40;0.40;;;7.30;99.90;;;;;;4428484;32;20062;-66
2021/12/19 12:53:45;;;;;;;0.37;0.37;;;7.30;99.90;;;;;;4428530;32;20061;-66
2021/12/19 12:56:15;;;;;;;0.20;0.20;;;7.20;99.90;;;;;;4426587;32;20058;-66
2021/12/19 12:58:47;;;;;;;0.40;0.40;;;7.20;99.90;;;;;;4427617;32;20137;-66
2021/12/19 13:01:23;;;;;;;0.40;0.40;;;7.20;99.90;;;;;;4424609;32;20092;-66
2021/12/19 13:04:00;;;;;;;0.43;0.43;;;7.20;99.90;;;;;;4423602;32;20181;-66
2021/12/19 13:06:47;;;;;;;2.53;0.88;;;7.30;99.90;;;;;;4420092;32;20057;-66
2021/12/19 13:09:15;;;;;;;0.30;0.30;;;7.20;99.90;;;;;;4414914;32;20085;-65
2021/12/19 13:11:43;;;;;;;0.73;0.57;;;7.30;99.90;;;;;;4427619;32;20158;-65
2021/12/19 13:14:15;;;;;;;3.50;0.57;;;7.30;99.90;;;;;;4420367;32;20062;-65
2021/12/19 13:16:46;;;;;;;0.30;0.30;;;7.30;99.90;;;;;;4420278;32;20557;-65
2021/12/19 13:19:33;;;;;;;0.50;0.50;;;7.40;99.90;;;;;;4415718;32;20074;-65
2021/12/19 13:21:59;;;;;;;5.37;0.65;;;7.30;99.90;;;;;;4402216;32;20069;-65
2021/12/19 13:24:25;;;;;;;1.05;0.90;;;7.30;99.90;;;;;;4417627;32;20082;-65
2021/12/19 13:27:27;;;;;;;0.43;0.43;;;7.30;99.90;;;;;;4429224;32;20426;-65
2021/12/19 13:30:03;;;;;;;0.50;0.50;;;7.30;99.90;;;;;;4413223;32;20121;-65
2021/12/19 13:32:33;;;;;;;1.10;0.37;;;7.30;99.90;;;;;;4420603;32;20053;-65
2021/12/19 13:35:01;;;;;;;0.30;0.30;;;7.30;99.90;;;;;;4421909;32;20126;-65
2021/12/19 13:37:31;;;;;;;0.30;0.30;;;7.40;99.90;;;;;;4414296;32;20065;-65
2021/12/19 13:40:09;;;;;;;0.43;0.43;;;7.40;99.90;;;;;;4421391;32;20074;-66
2021/12/19 13:42:47;;;;;;;0.28;0.28;;;7.40;99.90;;;;;;4424799;32;20069;-65